sensor_id;sensor_type;location;lat;lon;timestamp;P1;durP1;ratioP1;P2;durP2;ratioP2
15258;SDS011;34462;51.368;12.364;2022-07-06T00:00:41;4.88;;;1.35;;
15258;SDS011;34462;51.368;12.364;2022-07-06T00:03:09;1.77;;;1.40;;
15258;SDS011;34462;51.368;12.364;2022-07-06T00:05:37;2.55;;;1.33;;
15258;SDS011;34462;51.368;12.364;2022-07-06T00:08:07;3.30;;;1.50;;
15258;SDS011;34462;51.368;12.364;2022-07-06T00:10:35;3.15;;;1.40;;
15258;SDS011;34462;51.368;12.364;2022-07-06T00:13:03;2.63;;;1.30;;
15258;SDS011;34462;51.368;12.364;2022-07-06T00:15:31;2.03;;;1.23;;
15258;SDS011;34462;51.368;12.364;2022-07-06T00:17:59;1.55;;;1.20;;
15258;SDS011;34462;51.368;12.364;2022-07-06T00:20:28;2.90;;;1.20;;
15258;SDS011;34462;51.368;12.364;2022-07-06T00:22:56;1.60;;;1.15;;
15258;SDS011;34462;51.368;12.364;2022-07-06T00:25:25;1.10;;;1.05;;
15258;SDS011;34462;51.368;12.364;2022-07-06T00:27:54;2.50;;;1.40;;
15258;SDS011;34462;51.368;12.364;2022-07-06T00:30:22;1.48;;;1.00;;
15258;SDS011;34462;51.368;12.364;2022-07-06T00:32:50;1.92;;;1.30;;
15258;SDS011;34462;51.368;12.364;2022-07-06T00:35:18;1.30;;;1.20;;
15258;SDS011;34462;51.368;12.364;2022-07-06T00:37:49;2.60;;;1.13;;
15258;SDS011;34462;51.368;12.364;2022-07-06T00:40:17;1.30;;;1.13;;
15258;SDS011;34462;51.368;12.364;2022-07-06T00:42:47;3.83;;;1.10;;
15258;SDS011;34462;51.368;12.364;2022-07-06T00:45:16;1.83;;;1.25;;
15258;SDS011;34462;51.368;12.364;2022-07-06T00:47:46;3.30;;;1.40;;
15258;SDS011;34462;51.368;12.364;2022-07-06T00:50:15;1.65;;;1.23;;
15258;SDS011;34462;51.368;12.364;2022-07-06T00:52:47;3.35;;;1.00;;
15258;SDS011;34462;51.368;12.364;2022-07-06T00:55:18;3.65;;;1.40;;
15258;SDS011;34462;51.368;12.364;2022-07-06T00:57:51;2.88;;;1.10;;
15258;SDS011;34462;51.368;12.364;2022-07-06T01:00:21;4.28;;;1.40;;
15258;SDS011;34462;51.368;12.364;2022-07-06T01:02:52;3.40;;;1.30;;
15258;SDS011;34462;51.368;12.364;2022-07-06T01:05:21;1.60;;;1.25;;
15258;SDS011;34462;51.368;12.364;2022-07-06T01:07:52;2.67;;;1.50;;
15258;SDS011;34462;51.368;12.364;2022-07-06T01:10:21;2.72;;;1.67;;
15258;SDS011;34462;51.368;12.364;2022-07-06T01:12:51;4.00;;;1.60;;
15258;SDS011;34462;51.368;12.364;2022-07-06T01:15:20;2.42;;;1.60;;
15258;SDS011;34462;51.368;12.364;2022-07-06T01:17:51;3.28;;;1.50;;
15258;SDS011;34462;51.368;12.364;2022-07-06T01:20:22;3.95;;;1.38;;
15258;SDS011;34462;51.368;12.364;2022-07-06T01:22:53;1.50;;;1.40;;
15258;SDS011;34462;51.368;12.364;2022-07-06T01:25:23;1.83;;;1.70;;
15258;SDS011;34462;51.368;12.364;2022-07-06T01:27:51;2.10;;;1.70;;
15258;SDS011;34462;51.368;12.364;2022-07-06T01:30:19;1.70;;;1.60;;
15258;SDS011;34462;51.368;12.364;2022-07-06T01:32:48;3.10;;;1.65;;
15258;SDS011;34462;51.368;12.364;2022-07-06T01:35:18;2.75;;;1.90;;
15258;SDS011;34462;51.368;12.364;2022-07-06T01:37:48;3.60;;;1.70;;
15258;SDS011;34462;51.368;12.364;2022-07-06T01:40:17;2.10;;;1.90;;
15258;SDS011;34462;51.368;12.364;2022-07-06T01:42:45;4.30;;;2.13;;
15258;SDS011;34462;51.368;12.364;2022-07-06T01:45:13;2.50;;;1.75;;
15258;SDS011;34462;51.368;12.364;2022-07-06T01:47:41;2.92;;;1.95;;
15258;SDS011;34462;51.368;12.364;2022-07-06T01:50:09;2.97;;;1.90;;
15258;SDS011;34462;51.368;12.364;2022-07-06T01:52:37;2.88;;;1.70;;
15258;SDS011;34462;51.368;12.364;2022-07-06T01:55:07;2.80;;;1.50;;
15258;SDS011;34462;51.368;12.364;2022-07-06T01:57:36;2.55;;;1.70;;
15258;SDS011;34462;51.368;12.364;2022-07-06T02:00:05;3.50;;;2.13;;
15258;SDS011;34462;51.368;12.364;2022-07-06T02:02:35;2.83;;;2.00;;
15258;SDS011;34462;51.368;12.364;2022-07-06T02:05:03;3.78;;;1.90;;
15258;SDS011;34462;51.368;12.364;2022-07-06T02:07:32;2.40;;;2.00;;
15258;SDS011;34462;51.368;12.364;2022-07-06T02:10:00;2.67;;;1.88;;
15258;SDS011;34462;51.368;12.364;2022-07-06T02:12:29;1.98;;;1.80;;
15258;SDS011;34462;51.368;12.364;2022-07-06T02:14:57;4.15;;;1.80;;
15258;SDS011;34462;51.368;12.364;2022-07-06T02:17:25;4.03;;;1.88;;
15258;SDS011;34462;51.368;12.364;2022-07-06T02:19:54;3.28;;;1.77;;
15258;SDS011;34462;51.368;12.364;2022-07-06T02:22:22;2.83;;;2.33;;
15258;SDS011;34462;51.368;12.364;2022-07-06T02:24:50;3.75;;;2.15;;
15258;SDS011;34462;51.368;12.364;2022-07-06T02:27:18;3.00;;;2.25;;
15258;SDS011;34462;51.368;12.364;2022-07-06T02:29:48;2.50;;;1.90;;
15258;SDS011;34462;51.368;12.364;2022-07-06T02:32:16;4.43;;;1.90;;
15258;SDS011;34462;51.368;12.364;2022-07-06T02:34:44;2.17;;;1.98;;
15258;SDS011;34462;51.368;12.364;2022-07-06T02:37:12;4.30;;;2.10;;
15258;SDS011;34462;51.368;12.364;2022-07-06T02:39:40;2.45;;;1.77;;
15258;SDS011;34462;51.368;12.364;2022-07-06T02:42:09;2.78;;;2.10;;
15258;SDS011;34462;51.368;12.364;2022-07-06T02:44:37;2.17;;;1.90;;
15258;SDS011;34462;51.368;12.364;2022-07-06T02:47:06;2.70;;;1.83;;
15258;SDS011;34462;51.368;12.364;2022-07-06T02:49:34;2.53;;;1.70;;
15258;SDS011;34462;51.368;12.364;2022-07-06T02:52:03;3.53;;;2.20;;
15258;SDS011;34462;51.368;12.364;2022-07-06T02:54:31;2.13;;;1.80;;
15258;SDS011;34462;51.368;12.364;2022-07-06T02:56:59;2.47;;;1.90;;
15258;SDS011;34462;51.368;12.364;2022-07-06T02:59:28;3.38;;;2.08;;
15258;SDS011;34462;51.368;12.364;2022-07-06T03:01:56;2.00;;;1.90;;
15258;SDS011;34462;51.368;12.364;2022-07-06T03:04:25;4.53;;;1.90;;
15258;SDS011;34462;51.368;12.364;2022-07-06T03:06:53;4.38;;;1.90;;
15258;SDS011;34462;51.368;12.364;2022-07-06T03:09:21;3.58;;;2.00;;
15258;SDS011;34462;51.368;12.364;2022-07-06T03:11:49;3.15;;;2.17;;
15258;SDS011;34462;51.368;12.364;2022-07-06T03:14:18;3.13;;;2.10;;
15258;SDS011;34462;51.368;12.364;2022-07-06T03:16:46;2.97;;;2.00;;
15258;SDS011;34462;51.368;12.364;2022-07-06T03:19:16;2.30;;;1.90;;
15258;SDS011;34462;51.368;12.364;2022-07-06T03:21:46;2.30;;;2.00;;
15258;SDS011;34462;51.368;12.364;2022-07-06T03:24:14;3.50;;;1.80;;
15258;SDS011;34462;51.368;12.364;2022-07-06T03:26:43;3.28;;;2.22;;
15258;SDS011;34462;51.368;12.364;2022-07-06T03:29:11;5.65;;;2.17;;
15258;SDS011;34462;51.368;12.364;2022-07-06T03:31:39;2.85;;;2.03;;
15258;SDS011;34462;51.368;12.364;2022-07-06T03:34:07;3.03;;;2.05;;
15258;SDS011;34462;51.368;12.364;2022-07-06T03:36:35;2.93;;;1.90;;
15258;SDS011;34462;51.368;12.364;2022-07-06T03:39:06;3.22;;;1.83;;
15258;SDS011;34462;51.368;12.364;2022-07-06T03:41:34;2.20;;;1.77;;
15258;SDS011;34462;51.368;12.364;2022-07-06T03:44:03;3.47;;;2.05;;
15258;SDS011;34462;51.368;12.364;2022-07-06T03:46:31;3.55;;;2.22;;
15258;SDS011;34462;51.368;12.364;2022-07-06T03:48:59;4.35;;;2.22;;
15258;SDS011;34462;51.368;12.364;2022-07-06T03:51:27;2.60;;;2.03;;
15258;SDS011;34462;51.368;12.364;2022-07-06T03:53:56;6.13;;;2.00;;
15258;SDS011;34462;51.368;12.364;2022-07-06T03:56:25;1.98;;;1.77;;
15258;SDS011;34462;51.368;12.364;2022-07-06T03:58:59;3.00;;;1.88;;
15258;SDS011;34462;51.368;12.364;2022-07-06T04:01:29;2.47;;;1.50;;
15258;SDS011;34462;51.368;12.364;2022-07-06T04:03:57;3.83;;;1.80;;
15258;SDS011;34462;51.368;12.364;2022-07-06T04:06:25;3.45;;;1.92;;
15258;SDS011;34462;51.368;12.364;2022-07-06T04:08:54;3.80;;;2.05;;
15258;SDS011;34462;51.368;12.364;2022-07-06T04:11:22;2.60;;;1.92;;
15258;SDS011;34462;51.368;12.364;2022-07-06T04:13:51;3.45;;;1.70;;
15258;SDS011;34462;51.368;12.364;2022-07-06T04:16:20;3.90;;;1.85;;
15258;SDS011;34462;51.368;12.364;2022-07-06T04:18:49;2.97;;;1.70;;
15258;SDS011;34462;51.368;12.364;2022-07-06T04:21:17;1.80;;;1.70;;
15258;SDS011;34462;51.368;12.364;2022-07-06T04:23:45;2.85;;;1.65;;
15258;SDS011;34462;51.368;12.364;2022-07-06T04:26:13;2.25;;;1.90;;
15258;SDS011;34462;51.368;12.364;2022-07-06T04:28:41;3.78;;;1.70;;
15258;SDS011;34462;51.368;12.364;2022-07-06T04:31:11;4.05;;;1.95;;
15258;SDS011;34462;51.368;12.364;2022-07-06T04:33:41;3.25;;;1.92;;
15258;SDS011;34462;51.368;12.364;2022-07-06T04:36:10;5.20;;;1.75;;
15258;SDS011;34462;51.368;12.364;2022-07-06T04:38:38;2.20;;;2.00;;
15258;SDS011;34462;51.368;12.364;2022-07-06T04:41:06;4.40;;;1.85;;
15258;SDS011;34462;51.368;12.364;2022-07-06T04:43:34;2.25;;;1.83;;
15258;SDS011;34462;51.368;12.364;2022-07-06T04:46:03;3.05;;;1.70;;
15258;SDS011;34462;51.368;12.364;2022-07-06T04:48:33;3.63;;;1.70;;
15258;SDS011;34462;51.368;12.364;2022-07-06T04:51:05;3.03;;;1.92;;
15258;SDS011;34462;51.368;12.364;2022-07-06T04:53:33;2.42;;;2.08;;
15258;SDS011;34462;51.368;12.364;2022-07-06T04:56:03;2.33;;;1.92;;
15258;SDS011;34462;51.368;12.364;2022-07-06T04:58:31;2.13;;;1.60;;
15258;SDS011;34462;51.368;12.364;2022-07-06T05:00:59;3.47;;;1.95;;
15258;SDS011;34462;51.368;12.364;2022-07-06T05:03:28;4.10;;;1.80;;
15258;SDS011;34462;51.368;12.364;2022-07-06T05:05:57;4.18;;;1.90;;
15258;SDS011;34462;51.368;12.364;2022-07-06T05:08:25;4.47;;;1.92;;
15258;SDS011;34462;51.368;12.364;2022-07-06T05:10:54;2.63;;;1.50;;
15258;SDS011;34462;51.368;12.364;2022-07-06T05:13:22;4.15;;;1.60;;
15258;SDS011;34462;51.368;12.364;2022-07-06T05:15:50;2.38;;;1.60;;
15258;SDS011;34462;51.368;12.364;2022-07-06T05:18:18;4.13;;;1.63;;
15258;SDS011;34462;51.368;12.364;2022-07-06T05:20:47;2.33;;;1.60;;
15258;SDS011;34462;51.368;12.364;2022-07-06T05:23:16;1.70;;;1.50;;
15258;SDS011;34462;51.368;12.364;2022-07-06T05:25:44;2.45;;;1.60;;
15258;SDS011;34462;51.368;12.364;2022-07-06T05:28:12;2.97;;;1.58;;
15258;SDS011;34462;51.368;12.364;2022-07-06T05:30:40;2.22;;;1.40;;
15258;SDS011;34462;51.368;12.364;2022-07-06T05:33:09;2.47;;;1.70;;
15258;SDS011;34462;51.368;12.364;2022-07-06T05:35:37;2.45;;;1.50;;
15258;SDS011;34462;51.368;12.364;2022-07-06T05:38:18;2.03;;;1.60;;
15258;SDS011;34462;51.368;12.364;2022-07-06T05:40:47;1.92;;;1.50;;
15258;SDS011;34462;51.368;12.364;2022-07-06T05:43:15;1.75;;;1.38;;
15258;SDS011;34462;51.368;12.364;2022-07-06T05:45:44;1.80;;;1.63;;
15258;SDS011;34462;51.368;12.364;2022-07-06T05:48:13;1.60;;;1.50;;
15258;SDS011;34462;51.368;12.364;2022-07-06T05:50:58;2.58;;;1.50;;
15258;SDS011;34462;51.368;12.364;2022-07-06T05:53:28;2.05;;;1.48;;
15258;SDS011;34462;51.368;12.364;2022-07-06T05:55:56;4.40;;;1.85;;
15258;SDS011;34462;51.368;12.364;2022-07-06T05:58:25;3.83;;;1.42;;
15258;SDS011;34462;51.368;12.364;2022-07-06T06:00:53;2.67;;;1.50;;
15258;SDS011;34462;51.368;12.364;2022-07-06T06:03:21;3.15;;;1.58;;
15258;SDS011;34462;51.368;12.364;2022-07-06T06:05:50;4.32;;;1.63;;
15258;SDS011;34462;51.368;12.364;2022-07-06T06:08:18;2.15;;;1.65;;
15258;SDS011;34462;51.368;12.364;2022-07-06T06:10:48;2.85;;;1.40;;
15258;SDS011;34462;51.368;12.364;2022-07-06T06:13:16;3.20;;;1.35;;
15258;SDS011;34462;51.368;12.364;2022-07-06T06:15:44;3.55;;;1.40;;
15258;SDS011;34462;51.368;12.364;2022-07-06T06:18:13;4.05;;;1.52;;
15258;SDS011;34462;51.368;12.364;2022-07-06T06:20:43;2.78;;;1.60;;
15258;SDS011;34462;51.368;12.364;2022-07-06T06:23:12;2.08;;;1.30;;
15258;SDS011;34462;51.368;12.364;2022-07-06T06:25:41;3.17;;;1.60;;
15258;SDS011;34462;51.368;12.364;2022-07-06T06:28:10;1.67;;;1.20;;
15258;SDS011;34462;51.368;12.364;2022-07-06T06:30:39;3.13;;;1.40;;
15258;SDS011;34462;51.368;12.364;2022-07-06T06:33:08;2.88;;;1.30;;
15258;SDS011;34462;51.368;12.364;2022-07-06T06:35:38;2.55;;;1.27;;
15258;SDS011;34462;51.368;12.364;2022-07-06T06:38:10;2.53;;;1.27;;
15258;SDS011;34462;51.368;12.364;2022-07-06T06:40:38;1.88;;;1.50;;
15258;SDS011;34462;51.368;12.364;2022-07-06T06:43:07;3.72;;;1.42;;
15258;SDS011;34462;51.368;12.364;2022-07-06T06:45:36;4.07;;;1.30;;
15258;SDS011;34462;51.368;12.364;2022-07-06T06:48:05;3.88;;;1.27;;
15258;SDS011;34462;51.368;12.364;2022-07-06T06:50:42;2.38;;;1.35;;
15258;SDS011;34462;51.368;12.364;2022-07-06T06:53:10;3.13;;;1.30;;
15258;SDS011;34462;51.368;12.364;2022-07-06T06:55:38;3.10;;;1.38;;
15258;SDS011;34462;51.368;12.364;2022-07-06T06:58:07;2.88;;;1.30;;
15258;SDS011;34462;51.368;12.364;2022-07-06T07:00:37;2.28;;;1.35;;
15258;SDS011;34462;51.368;12.364;2022-07-06T07:03:05;2.03;;;1.30;;
15258;SDS011;34462;51.368;12.364;2022-07-06T07:05:33;2.92;;;1.40;;
15258;SDS011;34462;51.368;12.364;2022-07-06T07:08:01;3.35;;;1.60;;
15258;SDS011;34462;51.368;12.364;2022-07-06T07:10:30;2.58;;;1.30;;
15258;SDS011;34462;51.368;12.364;2022-07-06T07:12:59;2.05;;;1.50;;
15258;SDS011;34462;51.368;12.364;2022-07-06T07:15:27;1.90;;;1.35;;
15258;SDS011;34462;51.368;12.364;2022-07-06T07:17:57;3.80;;;1.70;;
15258;SDS011;34462;51.368;12.364;2022-07-06T07:20:25;3.78;;;1.90;;
15258;SDS011;34462;51.368;12.364;2022-07-06T07:22:56;2.88;;;1.30;;
15258;SDS011;34462;51.368;12.364;2022-07-06T07:25:24;2.65;;;1.70;;
15258;SDS011;34462;51.368;12.364;2022-07-06T07:27:52;2.97;;;1.70;;
15258;SDS011;34462;51.368;12.364;2022-07-06T07:30:21;1.98;;;1.63;;
15258;SDS011;34462;51.368;12.364;2022-07-06T07:32:49;2.53;;;1.77;;
15258;SDS011;34462;51.368;12.364;2022-07-06T07:35:18;3.08;;;1.90;;
15258;SDS011;34462;51.368;12.364;2022-07-06T07:37:46;3.08;;;1.65;;
15258;SDS011;34462;51.368;12.364;2022-07-06T07:40:14;2.03;;;1.40;;
15258;SDS011;34462;51.368;12.364;2022-07-06T07:42:43;3.00;;;2.00;;
15258;SDS011;34462;51.368;12.364;2022-07-06T07:45:11;2.83;;;1.33;;
15258;SDS011;34462;51.368;12.364;2022-07-06T07:47:39;5.50;;;1.58;;
15258;SDS011;34462;51.368;12.364;2022-07-06T07:50:08;2.42;;;1.63;;
15258;SDS011;34462;51.368;12.364;2022-07-06T07:52:38;4.18;;;1.40;;
15258;SDS011;34462;51.368;12.364;2022-07-06T07:55:06;3.25;;;1.50;;
15258;SDS011;34462;51.368;12.364;2022-07-06T07:57:55;2.55;;;1.30;;
15258;SDS011;34462;51.368;12.364;2022-07-06T08:00:23;3.80;;;1.42;;
15258;SDS011;34462;51.368;12.364;2022-07-06T08:02:53;1.85;;;1.40;;
15258;SDS011;34462;51.368;12.364;2022-07-06T08:05:21;6.10;;;1.67;;
15258;SDS011;34462;51.368;12.364;2022-07-06T08:07:51;3.65;;;1.70;;
15258;SDS011;34462;51.368;12.364;2022-07-06T08:10:19;2.70;;;1.30;;
15258;SDS011;34462;51.368;12.364;2022-07-06T08:12:48;2.75;;;1.30;;
15258;SDS011;34462;51.368;12.364;2022-07-06T08:15:16;2.55;;;1.40;;
15258;SDS011;34462;51.368;12.364;2022-07-06T08:17:44;1.40;;;0.98;;
15258;SDS011;34462;51.368;12.364;2022-07-06T08:20:12;2.35;;;1.23;;
15258;SDS011;34462;51.368;12.364;2022-07-06T08:22:41;2.10;;;1.40;;
15258;SDS011;34462;51.368;12.364;2022-07-06T08:25:11;2.85;;;1.52;;
15258;SDS011;34462;51.368;12.364;2022-07-06T08:27:39;2.20;;;1.38;;
15258;SDS011;34462;51.368;12.364;2022-07-06T08:30:08;3.42;;;1.25;;
15258;SDS011;34462;51.368;12.364;2022-07-06T08:32:38;2.65;;;1.05;;
15258;SDS011;34462;51.368;12.364;2022-07-06T08:35:27;4.40;;;1.20;;
15258;SDS011;34462;51.368;12.364;2022-07-06T08:37:55;2.22;;;1.40;;
15258;SDS011;34462;51.368;12.364;2022-07-06T08:40:26;2.10;;;1.20;;
15258;SDS011;34462;51.368;12.364;2022-07-06T08:43:02;2.85;;;1.20;;
15258;SDS011;34462;51.368;12.364;2022-07-06T08:45:30;2.95;;;1.08;;
15258;SDS011;34462;51.368;12.364;2022-07-06T08:48:03;1.85;;;1.25;;
15258;SDS011;34462;51.368;12.364;2022-07-06T08:50:33;3.45;;;1.48;;
15258;SDS011;34462;51.368;12.364;2022-07-06T08:53:02;2.65;;;1.30;;
15258;SDS011;34462;51.368;12.364;2022-07-06T08:55:32;1.45;;;1.10;;
15258;SDS011;34462;51.368;12.364;2022-07-06T08:58:02;1.60;;;1.08;;
15258;SDS011;34462;51.368;12.364;2022-07-06T09:00:32;3.25;;;1.30;;
15258;SDS011;34462;51.368;12.364;2022-07-06T09:03:01;2.50;;;1.20;;
15258;SDS011;34462;51.368;12.364;2022-07-06T09:05:32;2.45;;;1.15;;
15258;SDS011;34462;51.368;12.364;2022-07-06T09:08:03;1.77;;;1.35;;
15258;SDS011;34462;51.368;12.364;2022-07-06T09:10:33;4.03;;;1.30;;
15258;SDS011;34462;51.368;12.364;2022-07-06T09:13:02;2.53;;;1.08;;
15258;SDS011;34462;51.368;12.364;2022-07-06T09:15:31;2.47;;;1.17;;
15258;SDS011;34462;51.368;12.364;2022-07-06T09:18:01;3.83;;;1.33;;
15258;SDS011;34462;51.368;12.364;2022-07-06T09:20:30;2.53;;;1.10;;
15258;SDS011;34462;51.368;12.364;2022-07-06T09:23:00;1.70;;;1.10;;
15258;SDS011;34462;51.368;12.364;2022-07-06T09:25:33;1.98;;;1.20;;
15258;SDS011;34462;51.368;12.364;2022-07-06T09:28:03;1.35;;;1.15;;
15258;SDS011;34462;51.368;12.364;2022-07-06T09:30:32;2.10;;;1.33;;
15258;SDS011;34462;51.368;12.364;2022-07-06T09:33:06;2.03;;;1.15;;
15258;SDS011;34462;51.368;12.364;2022-07-06T09:35:36;1.85;;;1.10;;
15258;SDS011;34462;51.368;12.364;2022-07-06T09:38:06;2.28;;;1.10;;
15258;SDS011;34462;51.368;12.364;2022-07-06T09:40:40;1.65;;;1.20;;
15258;SDS011;34462;51.368;12.364;2022-07-06T09:43:10;2.38;;;1.23;;
15258;SDS011;34462;51.368;12.364;2022-07-06T09:45:42;2.25;;;1.10;;
15258;SDS011;34462;51.368;12.364;2022-07-06T09:48:12;2.17;;;1.20;;
15258;SDS011;34462;51.368;12.364;2022-07-06T09:50:45;2.53;;;1.20;;
15258;SDS011;34462;51.368;12.364;2022-07-06T09:53:17;2.60;;;1.50;;
15258;SDS011;34462;51.368;12.364;2022-07-06T09:55:49;4.45;;;1.33;;
15258;SDS011;34462;51.368;12.364;2022-07-06T09:58:20;2.10;;;1.30;;
15258;SDS011;34462;51.368;12.364;2022-07-06T10:01:09;1.45;;;1.17;;
15258;SDS011;34462;51.368;12.364;2022-07-06T10:03:38;2.60;;;1.40;;
15258;SDS011;34462;51.368;12.364;2022-07-06T10:06:07;2.15;;;1.38;;
15258;SDS011;34462;51.368;12.364;2022-07-06T10:08:35;1.25;;;1.10;;
15258;SDS011;34462;51.368;12.364;2022-07-06T10:11:07;1.77;;;1.25;;
15258;SDS011;34462;51.368;12.364;2022-07-06T10:13:40;4.20;;;1.33;;
15258;SDS011;34462;51.368;12.364;2022-07-06T10:16:12;2.05;;;1.42;;
15258;SDS011;34462;51.368;12.364;2022-07-06T10:18:42;3.55;;;1.30;;
15258;SDS011;34462;51.368;12.364;2022-07-06T10:21:11;2.17;;;1.50;;
15258;SDS011;34462;51.368;12.364;2022-07-06T10:23:39;3.13;;;1.38;;
15258;SDS011;34462;51.368;12.364;2022-07-06T10:26:09;2.92;;;1.20;;
15258;SDS011;34462;51.368;12.364;2022-07-06T10:28:41;3.58;;;1.30;;
15258;SDS011;34462;51.368;12.364;2022-07-06T10:31:10;2.60;;;1.20;;
15258;SDS011;34462;51.368;12.364;2022-07-06T10:33:39;3.47;;;1.50;;
15258;SDS011;34462;51.368;12.364;2022-07-06T10:36:08;3.65;;;1.27;;
15258;SDS011;34462;51.368;12.364;2022-07-06T10:38:38;1.90;;;1.10;;
15258;SDS011;34462;51.368;12.364;2022-07-06T10:41:07;1.73;;;1.17;;
15258;SDS011;34462;51.368;12.364;2022-07-06T10:43:37;1.77;;;1.40;;
15258;SDS011;34462;51.368;12.364;2022-07-06T10:46:09;1.48;;;1.13;;
15258;SDS011;34462;51.368;12.364;2022-07-06T10:48:40;2.45;;;1.05;;
15258;SDS011;34462;51.368;12.364;2022-07-06T10:51:10;6.32;;;1.40;;
15258;SDS011;34462;51.368;12.364;2022-07-06T10:53:40;3.28;;;1.17;;
15258;SDS011;34462;51.368;12.364;2022-07-06T10:56:12;2.17;;;1.20;;
15258;SDS011;34462;51.368;12.364;2022-07-06T10:58:41;2.00;;;1.08;;
15258;SDS011;34462;51.368;12.364;2022-07-06T11:01:17;1.63;;;0.82;;
15258;SDS011;34462;51.368;12.364;2022-07-06T11:03:47;1.25;;;1.10;;
15258;SDS011;34462;51.368;12.364;2022-07-06T11:06:18;3.13;;;1.42;;
15258;SDS011;34462;51.368;12.364;2022-07-06T11:08:52;1.85;;;1.00;;
15258;SDS011;34462;51.368;12.364;2022-07-06T11:11:25;1.73;;;0.90;;
15258;SDS011;34462;51.368;12.364;2022-07-06T11:14:07;1.67;;;1.20;;
15258;SDS011;34462;51.368;12.364;2022-07-06T11:16:59;3.80;;;1.10;;
15258;SDS011;34462;51.368;12.364;2022-07-06T11:19:29;1.85;;;0.98;;
15258;SDS011;34462;51.368;12.364;2022-07-06T11:22:04;1.33;;;1.00;;
15258;SDS011;34462;51.368;12.364;2022-07-06T11:24:36;2.95;;;1.25;;
15258;SDS011;34462;51.368;12.364;2022-07-06T11:27:08;2.63;;;1.20;;
15258;SDS011;34462;51.368;12.364;2022-07-06T11:29:36;2.63;;;1.30;;
15258;SDS011;34462;51.368;12.364;2022-07-06T11:32:06;3.60;;;1.10;;
15258;SDS011;34462;51.368;12.364;2022-07-06T11:34:37;1.45;;;1.00;;
15258;SDS011;34462;51.368;12.364;2022-07-06T11:37:08;1.13;;;0.98;;
15258;SDS011;34462;51.368;12.364;2022-07-06T11:39:40;2.28;;;1.08;;
15258;SDS011;34462;51.368;12.364;2022-07-06T11:42:12;2.13;;;0.90;;
15258;SDS011;34462;51.368;12.364;2022-07-06T11:44:43;2.72;;;1.20;;
15258;SDS011;34462;51.368;12.364;2022-07-06T11:47:12;3.67;;;1.13;;
15258;SDS011;34462;51.368;12.364;2022-07-06T11:49:49;1.92;;;1.00;;
15258;SDS011;34462;51.368;12.364;2022-07-06T11:52:19;1.55;;;1.08;;
15258;SDS011;34462;51.368;12.364;2022-07-06T11:54:56;1.38;;;1.17;;
15258;SDS011;34462;51.368;12.364;2022-07-06T11:57:27;3.25;;;1.13;;
15258;SDS011;34462;51.368;12.364;2022-07-06T12:00:00;2.25;;;1.10;;
15258;SDS011;34462;51.368;12.364;2022-07-06T12:02:28;3.78;;;1.17;;
15258;SDS011;34462;51.368;12.364;2022-07-06T12:04:56;2.95;;;0.98;;
15258;SDS011;34462;51.368;12.364;2022-07-06T12:07:25;1.23;;;0.95;;
15258;SDS011;34462;51.368;12.364;2022-07-06T12:09:53;2.90;;;1.38;;
15258;SDS011;34462;51.368;12.364;2022-07-06T12:12:21;2.95;;;0.98;;
15258;SDS011;34462;51.368;12.364;2022-07-06T12:14:50;1.40;;;0.77;;
15258;SDS011;34462;51.368;12.364;2022-07-06T12:17:20;2.13;;;1.02;;
15258;SDS011;34462;51.368;12.364;2022-07-06T12:19:51;3.70;;;1.10;;
15258;SDS011;34462;51.368;12.364;2022-07-06T12:22:24;1.58;;;1.00;;
15258;SDS011;34462;51.368;12.364;2022-07-06T12:24:53;1.65;;;0.90;;
15258;SDS011;34462;51.368;12.364;2022-07-06T12:27:21;2.97;;;0.90;;
15258;SDS011;34462;51.368;12.364;2022-07-06T12:29:50;2.00;;;1.13;;
15258;SDS011;34462;51.368;12.364;2022-07-06T12:32:19;2.25;;;1.00;;
15258;SDS011;34462;51.368;12.364;2022-07-06T12:35:01;1.70;;;0.80;;
15258;SDS011;34462;51.368;12.364;2022-07-06T12:37:30;2.33;;;1.00;;
15258;SDS011;34462;51.368;12.364;2022-07-06T12:39:58;3.90;;;1.25;;
15258;SDS011;34462;51.368;12.364;2022-07-06T12:42:27;1.10;;;1.00;;
15258;SDS011;34462;51.368;12.364;2022-07-06T12:44:56;2.88;;;0.90;;
15258;SDS011;34462;51.368;12.364;2022-07-06T12:47:25;1.25;;;1.00;;
15258;SDS011;34462;51.368;12.364;2022-07-06T12:50:03;1.80;;;0.90;;
15258;SDS011;34462;51.368;12.364;2022-07-06T12:52:33;3.30;;;1.10;;
15258;SDS011;34462;51.368;12.364;2022-07-06T12:55:02;2.67;;;0.90;;
15258;SDS011;34462;51.368;12.364;2022-07-06T12:57:42;3.63;;;0.98;;
15258;SDS011;34462;51.368;12.364;2022-07-06T13:00:13;3.92;;;1.17;;
15258;SDS011;34462;51.368;12.364;2022-07-06T13:02:43;1.85;;;0.93;;
15258;SDS011;34462;51.368;12.364;2022-07-06T13:05:34;5.63;;;1.38;;
15258;SDS011;34462;51.368;12.364;2022-07-06T13:08:04;3.40;;;1.33;;
15258;SDS011;34462;51.368;12.364;2022-07-06T13:10:32;4.22;;;1.40;;
15258;SDS011;34462;51.368;12.364;2022-07-06T13:13:02;1.77;;;0.90;;
15258;SDS011;34462;51.368;12.364;2022-07-06T13:15:31;5.35;;;1.20;;
15258;SDS011;34462;51.368;12.364;2022-07-06T13:17:59;4.28;;;1.20;;
15258;SDS011;34462;51.368;12.364;2022-07-06T13:20:28;1.40;;;1.00;;
15258;SDS011;34462;51.368;12.364;2022-07-06T13:22:56;2.60;;;1.10;;
15258;SDS011;34462;51.368;12.364;2022-07-06T13:25:24;3.95;;;1.00;;
15258;SDS011;34462;51.368;12.364;2022-07-06T13:27:52;2.97;;;1.00;;
15258;SDS011;34462;51.368;12.364;2022-07-06T13:30:20;1.30;;;0.80;;
15258;SDS011;34462;51.368;12.364;2022-07-06T13:32:49;1.77;;;1.08;;
15258;SDS011;34462;51.368;12.364;2022-07-06T13:35:17;1.98;;;1.15;;
15258;SDS011;34462;51.368;12.364;2022-07-06T13:37:45;2.97;;;1.10;;
15258;SDS011;34462;51.368;12.364;2022-07-06T13:40:15;1.83;;;1.15;;
15258;SDS011;34462;51.368;12.364;2022-07-06T13:42:43;2.55;;;1.10;;
15258;SDS011;34462;51.368;12.364;2022-07-06T13:45:12;1.90;;;1.20;;
15258;SDS011;34462;51.368;12.364;2022-07-06T13:47:40;3.58;;;1.20;;
15258;SDS011;34462;51.368;12.364;2022-07-06T13:50:09;1.38;;;1.02;;
15258;SDS011;34462;51.368;12.364;2022-07-06T13:52:37;1.95;;;1.10;;
15258;SDS011;34462;51.368;12.364;2022-07-06T13:55:06;2.75;;;1.00;;
15258;SDS011;34462;51.368;12.364;2022-07-06T13:57:35;3.17;;;0.80;;
15258;SDS011;34462;51.368;12.364;2022-07-06T14:00:04;1.77;;;1.00;;
15258;SDS011;34462;51.368;12.364;2022-07-06T14:02:34;2.13;;;0.95;;
15258;SDS011;34462;51.368;12.364;2022-07-06T14:05:02;1.27;;;0.77;;
15258;SDS011;34462;51.368;12.364;2022-07-06T14:07:33;3.80;;;1.20;;
15258;SDS011;34462;51.368;12.364;2022-07-06T14:10:01;1.17;;;0.90;;
15258;SDS011;34462;51.368;12.364;2022-07-06T14:12:29;3.35;;;1.10;;
15258;SDS011;34462;51.368;12.364;2022-07-06T14:15:01;1.75;;;1.00;;
15258;SDS011;34462;51.368;12.364;2022-07-06T14:17:43;1.25;;;0.98;;
15258;SDS011;34462;51.368;12.364;2022-07-06T14:20:11;3.05;;;1.08;;
15258;SDS011;34462;51.368;12.364;2022-07-06T14:22:41;2.55;;;1.13;;
15258;SDS011;34462;51.368;12.364;2022-07-06T14:25:09;3.70;;;1.23;;
15258;SDS011;34462;51.368;12.364;2022-07-06T14:27:38;2.55;;;1.27;;
15258;SDS011;34462;51.368;12.364;2022-07-06T14:30:10;1.38;;;1.00;;
15258;SDS011;34462;51.368;12.364;2022-07-06T14:32:39;1.27;;;1.00;;
15258;SDS011;34462;51.368;12.364;2022-07-06T14:35:10;2.08;;;1.13;;
15258;SDS011;34462;51.368;12.364;2022-07-06T14:37:38;3.22;;;1.02;;
15258;SDS011;34462;51.368;12.364;2022-07-06T14:40:11;2.00;;;1.00;;
15258;SDS011;34462;51.368;12.364;2022-07-06T14:42:41;2.85;;;1.20;;
15258;SDS011;34462;51.368;12.364;2022-07-06T14:45:10;3.08;;;0.95;;
15258;SDS011;34462;51.368;12.364;2022-07-06T14:47:38;1.77;;;1.05;;